This is the latest recevied weather packets stored in our database for station/object ON4CCM-13. If no packets are shown the sender has not sent any weather packets the latest 10 day(s).
| Time | Temp. | Humidity | Pressure | Rain* | Wind** | Luminosity | Snow |
|---|---|---|---|---|---|---|---|
| 1777610417 | 7.22° C | 38% | 1027.3 hPa | 0 mm | - | - | - |
| 1777609873 | 7.22° C | 37% | 1027.3 hPa | 0 mm | - | - | - |
| 1777609270 | 7.22° C | 37% | 1027.4 hPa | 0 mm | - | - | - |
| 1777608061 | 7.22° C | 37% | 1027.2 hPa | 0 mm | - | - | - |
| 1777605043 | 6.67° C | 35% | 1027.4 hPa | 0 mm | - | - | - |
| 1777603252 | 7.22° C | 31% | 1027.7 hPa | 0 mm | - | - | - |
| 1777602628 | 7.78° C | 30% | 1027.7 hPa | 0 mm | - | - | - |
| 1777596674 | 8.33° C | 19% | 1027.7 hPa | 0 mm | - | - | - |
| 1777596048 | 8.89° C | 16% | 1027.6 hPa | 0 mm | - | - | - |
| 1777593028 | 10.56° C | - | 1027.8 hPa | 0 mm | - | - | - |
| 1777591846 | 10.56° C | 10% | 1027.7 hPa | 0 mm | - | - | - |
| 1777590072 | 10.56° C | - | 1027.7 hPa | 0 mm | - | - | - |
| 1777587053 | 12.22° C | - | 1027.6 hPa | 0 mm | - | - | - |
| 1777582847 | 15° C | - | 1027 hPa | 0 mm | - | - | - |
| 1777580512 | 16.11° C | - | 1027.1 hPa | 0 mm | - | - | - |
| 1777576246 | 17.22° C | - | 1026.6 hPa | 0 mm | - | - | - |
| 1777567854 | 20° C | - | 1026.3 hPa | 0 mm | - | - | - |
| 1777566647 | 20.56° C | - | 1026.3 hPa | 0 mm | - | - | - |
| 1777566046 | 20.56° C | - | 1026.5 hPa | 0 mm | - | - | - |
| 1777563026 | 20.56° C | - | 1026.4 hPa | 0 mm | - | - | - |
| 1777561274 | 20.56° C | - | 1026.3 hPa | 0 mm | - | - | - |
| 1777558860 | 20.56° C | - | 1026.7 hPa | 0 mm | - | - | - |
| 1777554631 | 20° C | - | 1027.3 hPa | 0 mm | - | - | - |
| 1777550463 | 18.89° C | - | 1028 hPa | 0 mm | - | - | - |
| 1777549256 | 18.89° C | - | 1028.2 hPa | 0 mm | - | - | - |
* Rain latest hour (hover to see other rain measurements)
** Current wind speed in m/s (hover to see current wind gust speed)